createdAt,value
2022-10-18T00:00:18.127Z,18.60
2022-10-18T00:00:40.231Z,20.38
2022-10-18T00:01:03.499Z,19.13
2022-10-18T00:01:25.342Z,19.00
2022-10-18T00:01:59.855Z,19.90
2022-10-18T00:02:22.056Z,21.92
2022-10-18T00:02:44.392Z,21.73
2022-10-18T00:03:07.992Z,21.90
2022-10-18T00:03:31.314Z,18.85
2022-10-18T00:03:56.556Z,19.55
2022-10-18T00:04:21.047Z,19.70
2022-10-18T00:04:42.899Z,24.05
2022-10-18T00:05:16.185Z,19.80
2022-10-18T00:05:39.204Z,22.17
2022-10-18T00:06:05.026Z,22.05
2022-10-18T00:06:29.763Z,20.27
2022-10-18T00:07:52.024Z,19.95
2022-10-18T00:08:14.388Z,23.33
2022-10-18T00:09:34.861Z,19.35
2022-10-18T00:09:59.126Z,17.88
2022-10-18T00:10:23.529Z,18.55
2022-10-18T00:10:46.059Z,21.95
2022-10-18T00:11:16.627Z,19.58
2022-10-18T00:11:42.929Z,20.25
2022-10-18T00:12:08.110Z,20.13
2022-10-18T00:12:35.733Z,21.77
2022-10-18T00:12:58.311Z,18.58
2022-10-18T00:13:25.464Z,18.25
2022-10-18T00:13:50.741Z,20.17
2022-10-18T00:14:25.734Z,19.60
2022-10-18T00:14:51.822Z,19.92
2022-10-18T00:15:15.847Z,20.65
2022-10-18T00:15:40.561Z,22.88
2022-10-18T00:16:05.930Z,21.83
2022-10-18T00:16:32.226Z,20.83
2022-10-18T00:17:00.643Z,23.55
2022-10-18T00:17:28.432Z,20.92
2022-10-18T00:17:54.828Z,22.00
2022-10-18T00:18:16.774Z,21.60
2022-10-18T00:18:48.538Z,23.73
2022-10-18T00:19:12.065Z,20.83
2022-10-18T00:19:34.179Z,21.65
2022-10-18T00:20:00.937Z,19.73
2022-10-18T00:20:24.877Z,19.67
2022-10-18T00:20:58.243Z,19.67
2022-10-18T00:21:23.111Z,20.08
2022-10-18T00:21:47.344Z,20.77
2022-10-18T00:22:10.445Z,21.83
2022-10-18T00:22:37.984Z,19.38
2022-10-18T00:23:04.852Z,19.73
2022-10-18T00:23:31.688Z,20.50
2022-10-18T00:23:55.411Z,19.80
2022-10-18T00:24:17.438Z,19.48
2022-10-18T00:24:46.629Z,19.65
2022-10-18T00:25:19.531Z,21.13
2022-10-18T00:25:41.400Z,20.38
2022-10-18T00:26:33.202Z,20.70
2022-10-18T00:26:55.147Z,18.00
2022-10-18T00:27:19.443Z,20.75
2022-10-18T00:27:41.276Z,19.27
2022-10-18T00:28:03.257Z,18.38
2022-10-18T00:28:29.996Z,21.60
2022-10-18T00:28:58.215Z,21.15
2022-10-18T00:29:20.855Z,18.13
2022-10-18T00:29:43.011Z,19.98
2022-10-18T00:30:18.037Z,19.13
2022-10-18T00:30:42.897Z,18.05
2022-10-18T00:31:14.185Z,22.35
2022-10-18T00:31:47.767Z,22.17
2022-10-18T00:32:09.780Z,20.42
2022-10-18T00:32:32.442Z,19.98
2022-10-18T00:32:54.799Z,19.70
2022-10-18T00:33:20.989Z,19.92
2022-10-18T00:33:48.815Z,20.23
2022-10-18T00:34:14.324Z,18.00
2022-10-18T00:34:39.875Z,19.65
2022-10-18T00:35:07.017Z,17.40
2022-10-18T00:35:39.007Z,20.58
2022-10-18T00:36:02.067Z,17.90
2022-10-18T00:36:26.490Z,22.45
2022-10-18T00:36:48.560Z,20.48
2022-10-18T00:37:11.550Z,20.95
2022-10-18T00:37:38.358Z,19.13
2022-10-18T00:38:03.473Z,17.90
2022-10-18T00:38:28.112Z,18.38
2022-10-18T00:38:52.939Z,21.35
2022-10-18T00:39:22.538Z,17.92
2022-10-18T00:39:47.451Z,19.30
2022-10-18T00:40:14.629Z,21.17
2022-10-18T00:40:36.763Z,18.70
2022-10-18T00:40:59.094Z,20.25
2022-10-18T00:41:26.268Z,19.27
2022-10-18T00:41:51.613Z,20.25
2022-10-18T00:42:21.661Z,21.20
2022-10-18T00:42:46.408Z,22.55
2022-10-18T00:43:19.296Z,20.95
2022-10-18T00:44:10.485Z,19.00
2022-10-18T00:44:35.401Z,21.30
2022-10-18T00:45:19.086Z,20.05
2022-10-18T00:45:45.924Z,18.95
2022-10-18T00:46:14.111Z,22.65
2022-10-18T00:46:45.382Z,20.27
2022-10-18T00:47:18.579Z,19.17
2022-10-18T00:47:44.012Z,18.63
2022-10-18T00:48:23.128Z,17.77
2022-10-18T00:48:45.155Z,18.33
2022-10-18T00:49:14.111Z,19.65
2022-10-18T00:49:49.778Z,18.48
2022-10-18T00:50:38.329Z,20.52
2022-10-18T00:51:03.420Z,18.80
2022-10-18T00:51:33.403Z,19.95
2022-10-18T00:52:07.026Z,19.65
2022-10-18T00:52:51.993Z,19.55
2022-10-18T00:53:19.523Z,19.20
2022-10-18T00:53:43.185Z,20.27
2022-10-18T00:54:05.640Z,21.02
2022-10-18T00:54:34.622Z,20.77
2022-10-18T00:55:00.046Z,18.90
2022-10-18T00:55:23.293Z,18.20
2022-10-18T00:55:48.911Z,18.97
2022-10-18T00:56:16.255Z,18.83
2022-10-18T00:56:40.889Z,17.42
2022-10-18T00:57:07.035Z,17.52
2022-10-18T00:57:30.495Z,18.38
2022-10-18T00:58:38.304Z,18.65
2022-10-18T00:59:04.657Z,17.15
2022-10-18T00:59:27.048Z,17.33
2022-10-18T00:59:49.491Z,17.95
2022-10-18T01:00:16.143Z,19.05
2022-10-18T01:00:49.804Z,19.20
2022-10-18T01:01:11.886Z,18.38
2022-10-18T01:01:43.202Z,19.50
2022-10-18T01:02:11.519Z,18.83
2022-10-18T01:02:41.436Z,16.58
2022-10-18T01:03:06.670Z,19.33
2022-10-18T01:03:30.511Z,18.90
2022-10-18T01:03:58.215Z,17.02
2022-10-18T01:04:21.815Z,18.27
2022-10-18T01:04:47.049Z,16.80
2022-10-18T01:05:17.625Z,17.98
2022-10-18T01:05:46.052Z,19.75
2022-10-18T01:06:20.195Z,16.80
2022-10-18T01:07:26.571Z,15.88
2022-10-18T01:08:29.891Z,18.02
2022-10-18T01:09:08.047Z,18.00
2022-10-18T01:09:52.207Z,16.60
2022-10-18T01:10:44.243Z,16.40
2022-10-18T01:11:43.146Z,16.65
2022-10-18T01:12:42.066Z,17.17
2022-10-18T01:13:36.889Z,21.25
2022-10-18T01:14:20.961Z,19.00
2022-10-18T01:15:09.171Z,16.33
2022-10-18T01:15:39.659Z,17.20
2022-10-18T01:16:22.079Z,16.20
2022-10-18T01:17:07.474Z,17.95
2022-10-18T01:17:48.626Z,16.05
2022-10-18T01:18:28.400Z,18.02
2022-10-18T01:19:24.346Z,16.25
2022-10-18T01:20:30.316Z,16.95
2022-10-18T01:21:08.284Z,16.05
2022-10-18T01:21:45.614Z,17.33
2022-10-18T01:22:22.038Z,16.77
2022-10-18T01:22:58.672Z,17.10
2022-10-18T01:23:47.832Z,18.17
2022-10-18T01:24:30.833Z,17.98
2022-10-18T01:25:30.356Z,16.65
2022-10-18T01:26:38.385Z,17.55
2022-10-18T01:27:48.777Z,17.50
2022-10-18T01:28:50.872Z,16.58
2022-10-18T01:29:38.855Z,14.93
2022-10-18T01:30:25.450Z,17.48
2022-10-18T01:31:10.715Z,17.58
2022-10-18T01:31:41.545Z,18.50
2022-10-18T01:32:10.510Z,16.77
2022-10-18T01:32:55.114Z,17.48
2022-10-18T01:33:55.207Z,14.70
2022-10-18T01:34:23.084Z,16.00
2022-10-18T01:34:51.636Z,19.35
2022-10-18T01:35:18.914Z,15.20
2022-10-18T01:35:47.318Z,14.20
2022-10-18T01:36:34.837Z,16.50
2022-10-18T01:37:00.157Z,15.07
2022-10-18T01:37:30.346Z,16.55
2022-10-18T01:37:58.252Z,17.15
2022-10-18T01:38:24.996Z,19.42
2022-10-18T01:38:54.064Z,15.90
2022-10-18T01:39:22.329Z,20.55
2022-10-18T01:39:48.801Z,16.33
2022-10-18T01:40:23.899Z,15.95
2022-10-18T01:40:49.243Z,15.45
2022-10-18T01:41:18.016Z,15.82
2022-10-18T01:41:44.930Z,16.52
2022-10-18T01:42:19.855Z,15.80
2022-10-18T01:42:46.528Z,16.95
2022-10-18T01:43:14.267Z,18.15
2022-10-18T01:43:38.071Z,15.13
2022-10-18T01:44:18.175Z,15.87
2022-10-18T01:44:42.150Z,17.10
2022-10-18T01:45:09.532Z,16.17
2022-10-18T01:45:37.361Z,15.13
2022-10-18T01:46:01.881Z,15.32
2022-10-18T01:46:31.289Z,17.15
2022-10-18T01:46:59.169Z,15.70
2022-10-18T01:47:23.473Z,14.55
2022-10-18T01:47:50.956Z,15.15
2022-10-18T01:48:19.629Z,14.38
2022-10-18T01:48:51.758Z,17.00
2022-10-18T01:49:13.676Z,16.70
2022-10-18T01:49:41.608Z,16.77
2022-10-18T01:50:06.972Z,17.63
2022-10-18T01:50:31.393Z,16.17
2022-10-18T01:50:55.022Z,17.65
2022-10-18T01:51:33.110Z,20.55
2022-10-18T01:51:57.789Z,17.17
2022-10-18T01:52:21.909Z,15.05
2022-10-18T01:52:51.659Z,15.43
2022-10-18T01:53:35.645Z,15.88
2022-10-18T01:53:58.399Z,22.80
2022-10-18T01:54:28.204Z,25.75
2022-10-18T01:54:54.450Z,32.65
2022-10-18T01:55:58.781Z,31.33
2022-10-18T01:56:53.330Z,21.15
2022-10-18T01:57:41.259Z,26.02
2022-10-18T01:58:19.260Z,25.30
2022-10-18T01:59:22.541Z,35.33
2022-10-18T01:59:59.248Z,30.23
2022-10-18T02:00:30.330Z,27.70
2022-10-18T02:02:00.913Z,73.97
2022-10-18T02:02:49.254Z,63.58
2022-10-18T02:03:31.184Z,98.68
2022-10-18T02:04:01.445Z,103.60
2022-10-18T02:04:44.544Z,83.45
2022-10-18T02:05:39.572Z,81.47
2022-10-18T02:06:32.896Z,73.43
2022-10-18T02:07:06.531Z,98.80
2022-10-18T02:08:12.456Z,65.93
2022-10-18T02:08:56.924Z,112.10
2022-10-18T02:09:27.212Z,63.95
2022-10-18T02:10:16.943Z,58.42
2022-10-18T02:10:58.513Z,111.27
2022-10-18T02:11:20.925Z,81.43
2022-10-18T02:11:43.744Z,52.95
2022-10-18T02:12:09.659Z,51.83
2022-10-18T02:12:39.576Z,42.28
2022-10-18T02:13:03.321Z,82.22
2022-10-18T02:13:31.888Z,58.88
2022-10-18T02:14:04.765Z,43.63
2022-10-18T02:14:33.158Z,70.03
2022-10-18T02:14:59.043Z,86.65
2022-10-18T02:15:31.051Z,76.90
2022-10-18T02:16:02.217Z,54.35
2022-10-18T02:16:31.507Z,52.40
2022-10-18T02:17:03.335Z,37.63
2022-10-18T02:17:31.043Z,34.22
2022-10-18T02:17:59.591Z,32.90
2022-10-18T02:18:35.586Z,40.20
2022-10-18T02:19:31.089Z,31.95
2022-10-18T02:20:02.748Z,43.03
2022-10-18T02:20:29.668Z,59.55
2022-10-18T02:20:53.668Z,61.53
2022-10-18T02:21:23.896Z,50.60
2022-10-18T02:21:49.028Z,27.15
2022-10-18T02:22:13.891Z,25.00
2022-10-18T02:22:42.628Z,24.52
2022-10-18T02:23:09.750Z,25.42
2022-10-18T02:23:44.680Z,22.95
2022-10-18T02:24:08.233Z,22.52
2022-10-18T02:24:48.556Z,22.52
2022-10-18T02:25:25.942Z,21.23
2022-10-18T02:25:48.570Z,25.65
2022-10-18T02:26:10.518Z,26.58
2022-10-18T02:26:33.847Z,26.20
2022-10-18T02:26:57.175Z,21.52
2022-10-18T02:27:28.382Z,20.88
2022-10-18T02:27:53.010Z,19.67
2022-10-18T02:28:15.264Z,16.40
2022-10-18T02:28:39.856Z,17.35
2022-10-18T02:29:02.079Z,17.30
2022-10-18T02:29:24.401Z,20.27
2022-10-18T02:29:49.243Z,17.27
2022-10-18T02:30:12.130Z,20.77
2022-10-18T02:30:44.633Z,19.23
2022-10-18T02:31:33.412Z,19.65
2022-10-18T02:32:32.904Z,16.15
2022-10-18T02:33:11.726Z,17.40
2022-10-18T02:33:44.929Z,15.38
2022-10-18T02:34:32.043Z,15.48
2022-10-18T02:35:22.262Z,16.63
2022-10-18T02:35:52.954Z,17.15
2022-10-18T02:36:39.165Z,15.82
2022-10-18T02:37:06.305Z,17.80
2022-10-18T02:37:36.666Z,14.43
2022-10-18T02:38:04.510Z,15.85
2022-10-18T02:38:31.356Z,14.38
2022-10-18T02:38:57.132Z,16.30
2022-10-18T02:39:28.681Z,17.38
2022-10-18T02:39:52.397Z,15.02
2022-10-18T02:40:15.425Z,16.23
2022-10-18T02:40:39.861Z,16.67
2022-10-18T02:41:04.585Z,17.55
2022-10-18T02:41:28.312Z,18.95
2022-10-18T02:41:50.534Z,15.80
2022-10-18T02:42:14.996Z,16.40
2022-10-18T02:42:47.342Z,15.00
2022-10-18T02:43:15.640Z,13.50
2022-10-18T02:43:37.496Z,17.45
2022-10-18T02:43:59.381Z,16.60
2022-10-18T02:44:21.588Z,16.35
2022-10-18T02:44:43.964Z,16.80
2022-10-18T02:45:07.461Z,13.85
2022-10-18T02:45:44.336Z,14.20
2022-10-18T02:46:06.602Z,13.55
2022-10-18T02:46:30.797Z,13.07
2022-10-18T02:46:52.894Z,15.15
2022-10-18T02:47:17.060Z,14.63
2022-10-18T02:47:41.344Z,16.27
2022-10-18T02:48:07.793Z,16.65
2022-10-18T02:48:30.247Z,16.42
2022-10-18T02:48:52.470Z,16.45
2022-10-18T02:49:14.725Z,14.27
2022-10-18T02:49:36.607Z,16.10
2022-10-18T02:50:16.588Z,17.48
2022-10-18T02:50:38.679Z,15.05
2022-10-18T02:51:00.878Z,15.65
2022-10-18T02:51:30.379Z,16.08
2022-10-18T02:51:52.384Z,16.00
2022-10-18T02:52:14.294Z,17.75
2022-10-18T02:52:36.294Z,14.98
2022-10-18T02:52:59.707Z,14.07
2022-10-18T02:53:21.697Z,17.00
2022-10-18T02:53:43.649Z,15.38
2022-10-18T02:54:11.385Z,14.75
2022-10-18T02:54:34.102Z,14.55
2022-10-18T02:54:57.377Z,15.30
2022-10-18T02:55:57.210Z,14.05
2022-10-18T02:56:30.105Z,14.48
2022-10-18T02:56:52.404Z,16.67
2022-10-18T02:57:15.304Z,17.27
2022-10-18T02:57:46.286Z,15.55
2022-10-18T02:58:11.549Z,13.63
2022-10-18T02:59:05.288Z,14.05
2022-10-18T02:59:27.185Z,13.75
2022-10-18T02:59:49.351Z,15.45
2022-10-18T03:00:17.692Z,17.55
2022-10-18T03:00:39.704Z,14.63
2022-10-18T03:01:03.995Z,13.98
2022-10-18T03:01:26.145Z,15.02
2022-10-18T03:01:48.762Z,15.35
2022-10-18T03:02:10.915Z,17.17
2022-10-18T03:02:33.175Z,15.73
2022-10-18T03:02:55.541Z,15.85
2022-10-18T03:03:20.023Z,13.93
2022-10-18T03:03:44.461Z,15.02
2022-10-18T03:04:08.262Z,14.07
2022-10-18T03:04:34.435Z,15.50
2022-10-18T03:04:56.428Z,14.63
2022-10-18T03:05:18.309Z,17.02
2022-10-18T03:05:40.787Z,15.95
2022-10-18T03:06:07.449Z,14.23
2022-10-18T03:06:29.330Z,15.75
2022-10-18T03:06:51.549Z,15.13
2022-10-18T03:07:14.065Z,15.70
2022-10-18T03:07:38.096Z,14.57
2022-10-18T03:08:03.067Z,15.40
2022-10-18T03:08:25.044Z,17.25
2022-10-18T03:08:52.016Z,16.75
2022-10-18T03:09:14.181Z,17.60
2022-10-18T03:09:39.121Z,14.43
2022-10-18T03:10:07.150Z,15.80
2022-10-18T03:10:29.358Z,15.25
2022-10-18T03:10:51.337Z,14.13
2022-10-18T03:11:13.552Z,15.90
2022-10-18T03:11:38.389Z,15.02
2022-10-18T03:12:00.312Z,17.48
2022-10-18T03:12:25.287Z,15.23
2022-10-18T03:12:48.714Z,13.95
2022-10-18T03:13:14.935Z,14.60
2022-10-18T03:13:41.272Z,14.07
2022-10-18T03:14:06.053Z,15.68
2022-10-18T03:14:35.569Z,16.83
2022-10-18T03:15:09.980Z,14.55
2022-10-18T03:15:38.097Z,16.08
2022-10-18T03:16:07.567Z,15.32
2022-10-18T03:16:31.902Z,14.75
2022-10-18T03:16:59.595Z,17.15
2022-10-18T03:17:25.698Z,14.82
2022-10-18T03:17:48.691Z,15.18
2022-10-18T03:18:11.219Z,13.27
2022-10-18T03:18:40.196Z,13.52
2022-10-18T03:19:02.165Z,16.27
2022-10-18T03:19:24.250Z,15.60
2022-10-18T03:19:46.467Z,17.15
2022-10-18T03:20:09.283Z,13.70
2022-10-18T03:20:32.000Z,14.68
2022-10-18T03:20:55.142Z,14.95
2022-10-18T03:21:19.101Z,17.48
2022-10-18T03:21:41.912Z,14.10
2022-10-18T03:22:04.916Z,18.08
2022-10-18T03:23:03.771Z,14.55
2022-10-18T03:23:30.597Z,14.77
2022-10-18T03:24:01.484Z,13.55
2022-10-18T03:24:25.815Z,14.65
2022-10-18T03:25:02.658Z,15.82
2022-10-18T03:25:29.958Z,14.00
2022-10-18T03:25:52.278Z,15.27
2022-10-18T03:26:14.410Z,14.07
2022-10-18T03:26:38.372Z,17.40
2022-10-18T03:27:02.769Z,16.15
2022-10-18T03:27:32.504Z,17.90
2022-10-18T03:27:56.600Z,15.88
2022-10-18T03:28:22.853Z,13.88
2022-10-18T03:28:46.338Z,15.27
2022-10-18T03:29:11.739Z,14.82
2022-10-18T03:29:36.338Z,14.95
2022-10-18T03:30:07.699Z,15.57
2022-10-18T03:30:30.130Z,17.48
2022-10-18T03:31:12.181Z,15.02
2022-10-18T03:31:35.000Z,17.65
2022-10-18T03:31:58.011Z,17.45
2022-10-18T03:32:20.830Z,15.02
2022-10-18T03:32:47.272Z,14.35
2022-10-18T03:33:10.615Z,15.02
2022-10-18T03:33:37.260Z,13.95
2022-10-18T03:34:10.046Z,15.82
2022-10-18T03:34:32.985Z,15.23
2022-10-18T03:34:56.118Z,15.48
2022-10-18T03:35:18.148Z,16.42
2022-10-18T03:35:47.589Z,16.15
2022-10-18T03:36:13.879Z,16.63
2022-10-18T03:36:36.308Z,16.85
2022-10-18T03:37:02.063Z,16.42
2022-10-18T03:37:26.745Z,15.90
2022-10-18T03:38:07.536Z,16.27
2022-10-18T03:38:33.663Z,18.60
2022-10-18T03:39:15.178Z,19.33
2022-10-18T03:39:39.253Z,13.63
2022-10-18T03:40:04.324Z,13.15
2022-10-18T03:40:26.641Z,15.48
2022-10-18T03:40:49.022Z,16.15
2022-10-18T03:41:13.429Z,16.75
2022-10-18T03:41:37.496Z,14.98
2022-10-18T03:41:59.567Z,17.02
2022-10-18T03:42:21.697Z,16.95
2022-10-18T03:42:43.776Z,17.10
2022-10-18T03:43:06.456Z,15.52
2022-10-18T03:43:35.412Z,15.35
2022-10-18T03:43:57.478Z,17.10
2022-10-18T03:44:20.389Z,18.80
2022-10-18T03:44:42.236Z,17.40
2022-10-18T03:45:05.057Z,16.23
2022-10-18T03:45:31.167Z,15.88
2022-10-18T03:45:54.210Z,17.55
2022-10-18T03:46:16.533Z,15.25
2022-10-18T03:46:38.857Z,17.38
2022-10-18T03:47:01.735Z,16.42
2022-10-18T03:47:27.360Z,18.10
2022-10-18T03:47:49.546Z,17.55
2022-10-18T03:48:12.495Z,14.60
2022-10-18T03:48:34.946Z,17.73
2022-10-18T03:48:57.235Z,17.45
2022-10-18T03:49:19.829Z,18.60
2022-10-18T03:49:42.024Z,15.85
2022-10-18T03:50:04.896Z,18.02
2022-10-18T03:50:31.898Z,18.00
2022-10-18T03:50:54.085Z,19.42
2022-10-18T03:51:16.477Z,17.00
2022-10-18T03:51:39.860Z,16.33
2022-10-18T03:52:01.735Z,21.58
2022-10-18T03:52:24.026Z,17.48
2022-10-18T03:52:45.940Z,15.93
2022-10-18T03:53:12.681Z,15.77
2022-10-18T03:53:38.716Z,18.42
2022-10-18T03:54:05.643Z,15.95
2022-10-18T03:54:30.342Z,17.23
2022-10-18T03:54:52.228Z,17.52
2022-10-18T03:55:16.311Z,21.05
2022-10-18T03:55:39.136Z,19.88
2022-10-18T03:56:01.591Z,16.05
2022-10-18T03:56:24.960Z,15.40
2022-10-18T03:56:48.433Z,16.95
2022-10-18T03:57:23.323Z,16.98
2022-10-18T03:57:48.436Z,15.10
2022-10-18T03:58:10.808Z,13.20
2022-10-18T03:58:57.535Z,17.15
2022-10-18T03:59:27.041Z,16.27
2022-10-18T03:59:49.389Z,16.85
2022-10-18T04:00:12.843Z,17.25
2022-10-18T04:00:40.572Z,17.48
2022-10-18T04:01:02.948Z,17.75
2022-10-18T04:01:34.973Z,14.35
2022-10-18T04:01:58.351Z,17.23
2022-10-18T04:02:22.679Z,18.67
2022-10-18T04:02:44.743Z,15.45
2022-10-18T04:03:19.147Z,14.82
2022-10-18T04:03:41.144Z,15.20
2022-10-18T04:04:08.428Z,15.30
2022-10-18T04:04:32.846Z,14.50
2022-10-18T04:05:18.361Z,15.80
2022-10-18T04:05:40.334Z,15.98
2022-10-18T04:06:07.487Z,15.23
2022-10-18T04:06:29.486Z,15.63
2022-10-18T04:06:55.563Z,15.73
2022-10-18T04:08:08.787Z,14.93
2022-10-18T04:08:30.780Z,14.50
2022-10-18T04:08:52.823Z,14.52
2022-10-18T04:09:15.661Z,13.85
2022-10-18T04:09:47.054Z,13.75
2022-10-18T04:10:09.155Z,14.75
2022-10-18T04:10:31.087Z,14.73
2022-10-18T04:10:56.277Z,17.50
2022-10-18T04:11:18.717Z,15.57
2022-10-18T04:11:42.774Z,14.70
2022-10-18T04:12:04.896Z,14.13
2022-10-18T04:12:26.838Z,14.88
2022-10-18T04:12:54.235Z,16.20
2022-10-18T04:13:16.695Z,17.60
2022-10-18T04:13:41.208Z,15.27
2022-10-18T04:14:03.299Z,18.67
2022-10-18T04:14:27.104Z,18.30
2022-10-18T04:14:57.028Z,15.18
2022-10-18T04:15:19.163Z,16.08
2022-10-18T04:15:41.058Z,15.20
2022-10-18T04:16:20.754Z,13.23
2022-10-18T04:16:45.468Z,14.65
2022-10-18T04:17:10.418Z,15.85
2022-10-18T04:17:32.754Z,15.63
2022-10-18T04:18:00.337Z,16.63
2022-10-18T04:18:25.117Z,15.40
2022-10-18T04:18:47.112Z,17.65
2022-10-18T04:19:30.331Z,17.92
2022-10-18T04:19:52.670Z,18.92
2022-10-18T04:20:15.368Z,21.92
2022-10-18T04:20:37.274Z,17.50
2022-10-18T04:21:17.438Z,14.48
2022-10-18T04:21:42.127Z,16.27
2022-10-18T04:22:04.023Z,17.50
2022-10-18T04:22:48.776Z,17.08
2022-10-18T04:23:13.896Z,15.95
2022-10-18T04:23:38.657Z,17.27
2022-10-18T04:24:07.862Z,15.40
2022-10-18T04:24:30.069Z,14.57
2022-10-18T04:24:53.989Z,14.77
2022-10-18T04:25:21.185Z,15.57
2022-10-18T04:26:05.523Z,17.00
2022-10-18T04:26:28.469Z,16.50
2022-10-18T04:26:50.654Z,14.15
2022-10-18T04:27:15.988Z,14.80
2022-10-18T04:27:39.423Z,15.38
2022-10-18T04:28:01.452Z,13.95
2022-10-18T04:28:23.462Z,16.10
2022-10-18T04:28:47.822Z,14.75
2022-10-18T04:29:13.505Z,12.73
2022-10-18T04:29:35.445Z,13.82
2022-10-18T04:30:05.804Z,15.82
2022-10-18T04:30:27.802Z,15.68
2022-10-18T04:30:58.414Z,15.40
2022-10-18T04:31:25.801Z,15.10
2022-10-18T04:31:47.650Z,15.95
2022-10-18T04:32:09.564Z,16.13
2022-10-18T04:32:31.739Z,15.43
2022-10-18T04:32:54.295Z,16.13
2022-10-18T04:33:16.574Z,16.88
2022-10-18T04:33:38.709Z,16.10
2022-10-18T04:34:02.998Z,19.55
2022-10-18T04:34:28.868Z,21.42
2022-10-18T04:34:52.541Z,15.85
2022-10-18T04:35:14.549Z,15.80
2022-10-18T04:35:36.919Z,18.67
2022-10-18T04:35:58.765Z,16.83
2022-10-18T04:36:22.015Z,15.75
2022-10-18T04:36:44.011Z,17.00
2022-10-18T04:37:07.681Z,16.02
2022-10-18T04:37:29.939Z,16.20
2022-10-18T04:37:52.579Z,16.30
2022-10-18T04:38:19.786Z,15.88
2022-10-18T04:38:42.044Z,16.10
2022-10-18T04:39:04.319Z,16.27
2022-10-18T04:39:33.323Z,14.25
2022-10-18T04:39:55.305Z,15.07
2022-10-18T04:40:17.415Z,16.13
2022-10-18T04:40:58.469Z,17.38
2022-10-18T04:41:23.844Z,16.23
2022-10-18T04:41:55.846Z,21.00
2022-10-18T04:42:33.867Z,17.83
2022-10-18T04:42:58.409Z,16.60
2022-10-18T04:43:22.111Z,19.08
2022-10-18T04:44:10.865Z,15.75
2022-10-18T04:44:33.314Z,16.63
2022-10-18T04:44:55.295Z,16.50
2022-10-18T04:45:18.346Z,16.45
2022-10-18T04:45:41.181Z,16.10
2022-10-18T04:46:03.982Z,15.23
2022-10-18T04:46:25.956Z,15.68
2022-10-18T04:46:49.584Z,16.63
2022-10-18T04:47:15.871Z,15.88
2022-10-18T04:47:42.031Z,14.88
2022-10-18T04:48:08.701Z,15.70
2022-10-18T04:48:30.698Z,15.77
2022-10-18T04:49:00.037Z,18.08
2022-10-18T04:49:24.687Z,18.08
2022-10-18T04:49:47.420Z,18.80
2022-10-18T04:50:14.916Z,20.55
2022-10-18T04:50:37.116Z,18.65
2022-10-18T04:50:59.718Z,17.80
2022-10-18T04:51:32.982Z,18.08
2022-10-18T04:51:54.840Z,18.08
2022-10-18T04:52:16.780Z,16.80
2022-10-18T04:52:38.881Z,17.63
2022-10-18T04:53:00.818Z,15.32
2022-10-18T04:53:23.589Z,18.30
2022-10-18T04:53:46.118Z,16.88
2022-10-18T04:54:09.160Z,18.83
2022-10-18T04:54:32.265Z,17.73
2022-10-18T04:54:56.098Z,18.98
2022-10-18T04:55:18.458Z,22.92
2022-10-18T04:55:57.778Z,29.52
2022-10-18T04:56:20.511Z,24.55
2022-10-18T04:56:47.091Z,23.52
2022-10-18T04:57:10.721Z,24.98
2022-10-18T04:57:37.252Z,25.10
2022-10-18T04:57:59.210Z,23.02
2022-10-18T04:58:21.578Z,19.15
2022-10-18T04:58:47.165Z,28.27
2022-10-18T04:59:17.194Z,22.95
2022-10-18T04:59:51.437Z,27.42
2022-10-18T05:00:17.732Z,20.80
2022-10-18T05:00:40.289Z,22.00
2022-10-18T05:01:09.108Z,25.55
2022-10-18T05:01:31.082Z,29.98
2022-10-18T05:01:54.370Z,26.70
2022-10-18T05:02:18.563Z,25.60
2022-10-18T05:02:44.141Z,27.75
2022-10-18T05:03:07.914Z,70.77
2022-10-18T05:03:33.871Z,88.55
2022-10-18T05:04:04.837Z,105.35
2022-10-18T05:04:32.671Z,134.70
2022-10-18T05:04:55.718Z,218.80
2022-10-18T05:05:27.053Z,155.48
2022-10-18T05:06:15.189Z,86.63
2022-10-18T05:06:40.013Z,124.15
2022-10-18T05:07:02.911Z,63.08
2022-10-18T05:07:47.748Z,95.30
2022-10-18T05:08:14.009Z,54.15
2022-10-18T05:08:39.050Z,45.83
2022-10-18T05:09:03.740Z,31.48
2022-10-18T05:09:25.782Z,30.60
2022-10-18T05:09:48.252Z,22.85
2022-10-18T05:10:11.810Z,18.35
2022-10-18T05:10:36.482Z,22.70
2022-10-18T05:11:00.876Z,21.35
2022-10-18T05:11:23.211Z,20.90
2022-10-18T05:11:45.276Z,21.40
2022-10-18T05:12:15.027Z,20.98
2022-10-18T05:12:37.131Z,27.17
2022-10-18T05:13:07.271Z,21.33
2022-10-18T05:13:32.657Z,24.38
2022-10-18T05:13:54.608Z,18.45
2022-10-18T05:14:19.455Z,22.08
2022-10-18T05:14:41.551Z,25.23
2022-10-18T05:15:03.741Z,24.30
2022-10-18T05:15:34.508Z,21.52
2022-10-18T05:15:56.832Z,23.45
2022-10-18T05:16:18.972Z,19.77
2022-10-18T05:16:43.175Z,20.15
2022-10-18T05:17:08.445Z,18.52
2022-10-18T05:17:30.499Z,16.88
2022-10-18T05:17:56.093Z,20.75
2022-10-18T05:18:19.820Z,22.67
2022-10-18T05:18:49.954Z,22.50
2022-10-18T05:19:12.035Z,21.45
2022-10-18T05:19:40.011Z,18.48
2022-10-18T05:20:03.921Z,19.00
2022-10-18T05:20:26.245Z,26.88
2022-10-18T05:20:56.751Z,26.25
2022-10-18T05:21:21.590Z,21.83
2022-10-18T05:21:53.395Z,31.23
2022-10-18T05:22:15.321Z,27.63
2022-10-18T05:22:41.383Z,23.83
2022-10-18T05:23:03.424Z,23.60
2022-10-18T05:23:26.182Z,20.65
2022-10-18T05:23:48.192Z,16.90
2022-10-18T05:24:14.997Z,20.33
2022-10-18T05:24:38.158Z,17.13
2022-10-18T05:25:01.958Z,21.40
2022-10-18T05:25:24.227Z,18.75
2022-10-18T05:25:46.906Z,20.40
2022-10-18T05:26:14.375Z,24.98
2022-10-18T05:26:36.774Z,22.27
2022-10-18T05:27:01.874Z,21.13
2022-10-18T05:27:32.397Z,18.25
2022-10-18T05:27:55.819Z,14.73
2022-10-18T05:28:38.672Z,18.05
2022-10-18T05:29:02.360Z,19.27
2022-10-18T05:29:24.852Z,15.40
2022-10-18T05:29:47.145Z,16.15
2022-10-18T05:30:09.565Z,14.98
2022-10-18T05:30:34.823Z,19.40
2022-10-18T05:31:00.467Z,18.02
2022-10-18T05:31:25.476Z,18.42
2022-10-18T05:32:00.010Z,17.08
2022-10-18T05:32:22.737Z,19.42
2022-10-18T05:32:44.876Z,19.83
2022-10-18T05:33:07.816Z,18.20
2022-10-18T05:33:32.589Z,17.80
2022-10-18T05:34:01.678Z,17.05
2022-10-18T05:34:25.109Z,17.17
2022-10-18T05:34:47.012Z,16.42
2022-10-18T05:35:11.009Z,17.73
2022-10-18T05:35:33.813Z,20.90
2022-10-18T05:36:00.288Z,28.00
2022-10-18T05:36:31.662Z,41.05
2022-10-18T05:36:54.721Z,138.15
2022-10-18T05:37:16.720Z,152.60
2022-10-18T05:37:46.357Z,108.63
2022-10-18T05:38:09.497Z,199.32
2022-10-18T05:38:31.798Z,299.80
2022-10-18T05:39:04.919Z,199.15
2022-10-18T05:39:28.062Z,297.70
2022-10-18T05:39:53.237Z,144.70
2022-10-18T05:40:15.445Z,164.98
2022-10-18T05:40:41.849Z,333.27
2022-10-18T05:41:07.717Z,260.75
2022-10-18T05:41:29.735Z,313.40
2022-10-18T05:41:55.438Z,311.85
2022-10-18T05:42:20.583Z,281.73
2022-10-18T05:42:42.747Z,377.25
2022-10-18T05:43:04.754Z,380.42
2022-10-18T05:43:32.449Z,194.35
2022-10-18T05:43:59.009Z,70.18
2022-10-18T05:44:21.106Z,246.88
2022-10-18T05:44:43.471Z,132.13
2022-10-18T05:45:06.165Z,119.10
2022-10-18T05:45:47.156Z,155.43
2022-10-18T05:46:15.113Z,76.68
2022-10-18T05:46:42.968Z,52.50
2022-10-18T05:47:12.997Z,26.33
2022-10-18T05:47:37.050Z,25.50
2022-10-18T05:47:59.243Z,28.92
2022-10-18T05:48:21.268Z,23.90
2022-10-18T05:48:47.777Z,17.00
2022-10-18T05:49:14.061Z,14.63
2022-10-18T05:49:36.476Z,14.40
2022-10-18T05:49:58.331Z,17.73
2022-10-18T05:50:22.032Z,15.20
2022-10-18T05:50:49.837Z,13.15
2022-10-18T05:51:12.753Z,15.77
2022-10-18T05:51:35.007Z,16.15
2022-10-18T05:52:10.303Z,13.65
2022-10-18T05:52:34.132Z,16.77
2022-10-18T05:53:12.514Z,13.35
2022-10-18T05:53:42.091Z,16.30
2022-10-18T05:54:04.351Z,14.98
2022-10-18T05:54:26.744Z,15.32
2022-10-18T05:54:48.846Z,12.55
2022-10-18T05:55:11.050Z,14.00
2022-10-18T05:55:34.838Z,14.27
2022-10-18T05:56:05.284Z,13.85
2022-10-18T05:56:28.578Z,13.88
2022-10-18T05:56:50.889Z,16.15
2022-10-18T05:57:13.716Z,17.40
2022-10-18T05:57:38.284Z,16.38
2022-10-18T05:58:02.009Z,15.45
2022-10-18T05:58:27.017Z,14.63
2022-10-18T05:58:55.957Z,14.50
2022-10-18T05:59:17.959Z,13.80
2022-10-18T05:59:39.874Z,15.82
2022-10-18T06:00:05.152Z,15.88
2022-10-18T06:00:28.713Z,15.65
2022-10-18T06:00:53.254Z,14.38
2022-10-18T06:01:18.328Z,13.25
2022-10-18T06:01:42.816Z,16.75
2022-10-18T06:02:05.801Z,13.70